Tiempo atmosférico en la estación meteorológica de Fraga, Huesca (170 m.)

Fecha
DESCASC
Temp. máxima en grados centígrados (hora)
DESCASC
Temp. mínima en grados centígrados (hora)
DESCASC
Temp. media en grados centígrados
DESCASC
Racha de viento máxima en m/sg (hora)
DESCASC
Velocidad máxima media en intervalos de 10 minutos(hora)
DESCASC
Precipitaciones diarias en mm
DESCASC
Precipitaciones de 00:00 a 06:00 en mm
DESCASC
Precipitaciones de 06:00 a 12:00 en mm
DESCASC
Precipitaciones de 12:00 a 18:00 en mm
DESCASC
Precipitaciones de 18:00 a 24:00 en mm
DESCASC
17-08-2017 37.9 (18:00) 19.7 (07:30) 28.8 10.83 (19:10) 5.83 (19:40) 0 0 0 0 0
16-08-2017 35 (18:30) 20.3 (07:20) 27.6 7.5 (17:50) 4.72 (22:50) 0 0 0 0 0
15-08-2017 32.3 (13:30) 19 (00:00) 25.6 11.11 (18:00) 7.22 (15:20) 0 0 0 0 0
14-08-2017 33.5 (16:00) 18.5 (07:10) 26 13.89 (17:50) 8.33 (18:10) 0 0 0 0 0
13-08-2017 33.8 (17:00) 16.2 (00:00) 25 10.56 (17:50) 6.39 (21:20) 0 0 0 0 0
12-08-2017 31.2 (18:00) 12.7 (00:00) 22 7.5 (23:40) 5 (23:40) 0 0 0 0 0
11-08-2017 29.9 (17:30) 14.7 (00:00) 22.3 12.22 (06:30) 6.94 (06:30) 0 0 0 0 0
10-08-2017 28.2 (16:40) 12.5 (00:00) 20.4 16.11 (22:10) 9.72 (22:40) 0 0 0 0 0
09-08-2017 23.2 (17:10) 16.5 (00:00) 19.9 9.17 (23:40) 5.28 (17:40) 0.4 0 0 0.2 0.2
08-08-2017 30.9 (14:40) 21.1 (00:00) 26 13.06 (19:00) 8.61 (18:10) 0 0 0 0 0
07-08-2017 33.7 (16:00) 22.8 (00:00) 28.3 13.33 (20:10) 7.5 (18:50) 0 0 0 0 0
06-08-2017 33 (18:00) 19.7 (00:00) 26.4 9.72 (20:10) 5.28 (19:40) 0 0 0 0 0
05-08-2017 38.3 (16:00) 25.3 (00:00) 31.8 10.83 (18:40) 6.11 (19:50) 0 0 0 0 0
04-08-2017 39.3 (19:20) 21.9 (00:00) 30.6 8.33 (23:20) 5.28 (23:20) 0 0 0 0 0
03-08-2017 40.1 (16:50) 21.4 (00:00) 30.7 7.22 (17:50) 4.44 (20:30) 0 0 0 0 0
02-08-2017 37.5 (16:50) 22 (00:00) 29.8 11.39 (14:30) 6.11 (14:20) 0 0 0 0 0
01-08-2017 30.8 (19:10) 21.5 (00:00) 26.1 10.83 (20:40) 6.11 (19:30) 0 0 0 0 0
31-07-2017 35.5 (16:40) 23.2 (00:00) 29.4 13.33 (17:50) 7.5 (17:30) 0 0 0 0 0
30-07-2017 38.3 (16:20) 21.7 (00:00) 30 13.06 (17:30) 7.78 (18:50) 0 0 0 0 0
29-07-2017 34.5 (15:50) 21.6 (00:00) 28.1 10.28 (19:40) 6.67 (20:30) 0 0 0 0 0
28-07-2017 36.3 (18:10) 22.3 (00:00) 29.3 10 (19:10) 7.5 (02:30) 0 0 0 0 0
27-07-2017 37.9 (16:50) 18.8 (00:00) 28.4 9.44 (20:40) 5.83 (23:30) 0 0 0 0 0
26-07-2017 33.1 (18:20) 16 (00:00) 24.5 8.89 (00:20) 4.44 (00:40) 0 0 0 0 0
25-07-2017 31.5 (18:00) 16.4 (00:00) 23.9 12.78 (16:40) 6.67 (17:20) 0 0 0 0 0
24-07-2017 31.2 (16:10) 18.9 (00:00) 25.1 18.33 (20:00) 11.67 (18:50) 0 0 0 0 0
23-07-2017 29.5 (15:10) 21.6 (00:00) 25.6 8.06 (00:40) 4.72 (00:30) 0 0 0 0 0
22-07-2017 32.8 (16:20) 21.1 (00:00) 26.9 9.72 (20:20) 5.83 (18:50) 0 0 0 0 0
21-07-2017 29.4 (17:50) 18.3 (00:00) 23.8 8.89 (19:20) 5.28 (18:50) 3 0 2.8 0.2 0
20-07-2017 33.2 (18:50) 20.6 (00:00) 26.9 9.72 (23:20) 5.56 (21:00) 0 0 0 0 0
19-07-2017 32.7 (15:20) 22.9 (00:00) 27.8 14.44 (14:40) 8.61 (16:00) 0 0 0 0 0

Gráficas

Temp. máximas Temp. mínimas Temp. medias Precipitaciones Rachas de viento máximas Velocidades máximas media en intervalos de 10 minutos

Datos horarios

Fecha y hora oficial Temperatura (ºC) Velocidad del viento (km/h) Dirección del viento Racha (km/h) Dirección de racha Precipitación (mm) Presión (hPa) Tendencia (hPa) Humedad (%)
2017-08-17 23:00:00 26.6 19 Sudeste 31 Sudeste 0 -- -- 58
2017-08-17 22:00:00 27.8 18 Sudeste 33 Sur 0 -- -- 52
2017-08-17 21:00:00 29.6 16 Sur 37 Sudeste 0 -- -- 49
2017-08-17 20:00:00 32.1 17 Sudeste 39 Sudeste 0 -- -- 42
2017-08-17 19:00:00 34.6 18 Sudeste 36 Sudeste 0 -- -- 31
2017-08-17 18:00:00 37.9 6 Norte 14 Sur 0 -- -- 22
2017-08-17 17:00:00 36.7 7 Sudeste 17 Oeste 0 -- -- 23
2017-08-17 16:00:00 36 9 Sudeste 16 Sudoeste 0 -- -- 23
2017-08-17 15:00:00 33.9 4 Noroeste 17 Oeste 0 -- -- 26
2017-08-17 14:00:00 32.6 7 Oeste 13 Oeste 0 -- -- 28
2017-08-17 13:00:00 30.6 4 Este 12 Sudoeste 0 -- -- 32
2017-08-17 12:00:00 28.3 5 Sudoeste 14 Este 0 -- -- 37
2017-08-17 11:00:00 26.1 5 Sudoeste 10 Sudoeste 0 -- -- 41
2017-08-17 10:00:00 23.6 4 Sudoeste 8 Sur 0 -- -- 47
2017-08-17 09:00:00 22.1 3 Sudeste 5 Sur 0 -- -- 51
2017-08-17 08:00:00 20.2 4 Sur 9 Sur 0 -- -- 56
2017-08-17 07:00:00 19.9 5 Sur 9 Sur 0 -- -- 58
2017-08-17 06:00:00 20.7 2 Sudeste 6 Sudoeste 0 -- -- 59
2017-08-17 05:00:00 21.5 5 Sur 13 Sur 0 -- -- 58
2017-08-17 04:00:00 22.6 7 Sudoeste 14 Sudeste 0 -- -- 58
2017-08-17 03:00:00 23.5 7 Sudeste 22 Sudeste 0 -- -- 77
2017-08-17 02:00:00 24.4 13 Sudeste 21 Sudeste 0 -- -- 69
2017-08-17 01:00:00 25.9 6 Sudeste 18 Sudeste 0 -- -- 64
2017-08-17 00:00:00 26.7 10 Sudeste 20 Sudeste 0 -- -- 62
2017-08-16 23:00:00 27.3 14 Sudeste 26 Sudeste 0 -- -- 62
2017-08-16 22:00:00 28.6 14 Sudeste 23 Sudeste 0 -- -- 57
2017-08-16 21:00:00 31 8 Sudeste 17 Sudeste 0 -- -- 50
2017-08-16 20:00:00 33.3 6 Noroeste 13 Noroeste 0 -- -- 42
2017-08-16 19:00:00 34.6 5 Noroeste 15 Oeste 0 -- -- 39
2017-08-16 18:00:00 34 8 Sudoeste 27 Oeste 0 -- -- 37
2017-08-16 17:00:00 34.4 5 Noroeste 17 Noroeste 0 -- -- 38
2017-08-16 16:00:00 33.4 6 Nordeste 19 Noroeste 0 -- -- 43
2017-08-16 15:00:00 32.4 10 Norte 17 Noroeste 0 -- -- 47
2017-08-16 14:00:00 30.4 5 Este 15 Sur 0 -- -- 51
2017-08-16 13:00:00 28.6 7 Sur 20 Sur 0 -- -- 58
2017-08-16 12:00:00 27.3 5 Sur 12 Sudeste 0 -- -- 62
2017-08-16 11:00:00 25.3 4 Sudoeste 10 Nordeste 0 -- -- 69
2017-08-16 10:00:00 23.4 3 Sur 6 Este 0 -- -- 71
2017-08-16 09:00:00 21.5 0 Calma 7 Oeste 0 -- -- 79
2017-08-16 08:00:00 20.7 0 Calma 5 Sudoeste 0 -- -- 80
2017-08-16 07:00:00 20.6 0 Calma 5 Noroeste 0 -- -- 79
2017-08-16 06:00:00 21 4 Noroeste 8 Noroeste 0 -- -- 76
2017-08-16 05:00:00 21.4 4 Noroeste 6 Oeste 0 -- -- 74
2017-08-16 04:00:00 21.7 3 Oeste 9 Este 0 -- -- 73
2017-08-16 03:00:00 23.3 6 Este 20 Sudeste 0 -- -- 67
2017-08-16 02:00:00 23.8 8 Sudeste 18 Sudeste 0 -- -- 67
2017-08-16 01:00:00 24.4 10 Sudeste 19 Sudeste 0 -- -- 66
2017-08-16 00:00:00 24.4 9 Este 18 Nordeste 0 -- -- 64
2017-08-15 23:00:00 25.6 6 Sudeste 18 Sudeste 0 -- -- 59
2017-08-15 22:00:00 25.8 7 Sudeste 19 Sudeste 0 -- -- 61
2017-08-15 21:00:00 26.9 12 Sudeste 24 Sudeste 0 -- -- 56
2017-08-15 20:00:00 27.7 15 Sudeste 36 Sur 0 -- -- 56
2017-08-15 19:00:00 28.8 21 Sudeste 38 Sudeste 0 -- -- 51
2017-08-15 18:00:00 29.4 18 Sudeste 40 Sudeste 0 -- -- 48
2017-08-15 17:00:00 29.8 20 Sudeste 38 Sur 0 -- -- 46
2017-08-15 16:00:00 31.5 19 Sudeste 39 Sudeste 0 -- -- 41
2017-08-15 15:00:00 32.1 20 Sur 37 Sudeste 0 -- -- 38
2017-08-15 14:00:00 32 18 Sudeste 34 Sudeste 0 -- -- 39
2017-08-15 13:00:00 31.3 10 Este 21 Nordeste 0 -- -- 42
2017-08-15 12:00:00 30.3 12 Nordeste 19 Nordeste 0 -- -- 41
2017-08-15 11:00:00 27.4 11 Nordeste 20 Nordeste 0 -- -- 50
2017-08-15 10:00:00 24.4 13 Nordeste 18 Nordeste 0 -- -- 61
2017-08-15 09:00:00 20.4 3 Sudoeste 10 Sudeste 0 -- -- 66
2017-08-15 08:00:00 19.2 2 Oeste 21 Nordeste 0 -- -- 68
2017-08-15 07:00:00 19 6 Este 17 Este 0 -- -- 64
2017-08-15 06:00:00 19.6 13 Nordeste 23 Nordeste 0 -- -- 64
2017-08-15 05:00:00 20.3 19 Nordeste 28 Este 0 -- -- 65
2017-08-15 04:00:00 21 19 Nordeste 27 Este 0 -- -- 66
2017-08-15 03:00:00 21.1 15 Nordeste 22 Este 0 -- -- 61
2017-08-15 02:00:00 22.2 10 Nordeste 16 Este 0 -- -- 57
2017-08-15 01:00:00 23.8 6 Este 33 Sudeste 0 -- -- 49
2017-08-15 00:00:00 24.5 12 Este 26 Este 0 -- -- 44
2017-08-14 23:00:00 24.4 8 Este 25 Sudeste 0 -- -- 50
2017-08-14 22:00:00 25.7 13 Sudeste 28 Sudeste 0 -- -- 46
2017-08-14 21:00:00 27.3 18 Sudeste 39 Sudeste 0 -- -- 41
2017-08-14 20:00:00 28.8 20 Sudeste 45 Sudeste 0 -- -- 38
2017-08-14 19:00:00 30 28 Sudeste 46 Sudeste 0 -- -- 38
2017-08-14 18:00:00 31.2 26 Sudeste 50 Sur 0 -- -- 39
2017-08-14 17:00:00 32.7 24 Sudeste 42 Sur 0 -- -- 35
2017-08-14 16:00:00 33.5 18 Sudeste 34 Sudeste 0 -- -- 30
2017-08-14 15:00:00 33.1 16 Sudeste 29 Sur 0 -- -- 32
2017-08-14 14:00:00 32.3 15 Sudeste 31 Sudeste 0 -- -- 34
2017-08-14 13:00:00 31 12 Sudeste 27 Sudeste 0 -- -- 37
2017-08-14 12:00:00 29 8 Este 20 Nordeste 0 -- -- 49
2017-08-14 11:00:00 27 8 Este 15 Nordeste 0 -- -- 52
2017-08-14 10:00:00 24.1 8 Nordeste 12 Nordeste 0 -- -- 62
2017-08-14 09:00:00 20.2 2 Oeste 5 Oeste 0 -- -- 73
2017-08-14 08:00:00 18.7 3 Sudoeste 9 Este 0 -- -- 78
2017-08-14 07:00:00 18.6 3 Noroeste 11 Nordeste 0 -- -- 78
2017-08-14 06:00:00 19.1 15 Nordeste 23 Este 0 -- -- 77
2017-08-14 05:00:00 19.7 7 Nordeste 20 Este 0 -- -- 76
2017-08-14 04:00:00 20 16 Nordeste 26 Nordeste 0 -- -- 72
2017-08-14 03:00:00 20.7 14 Nordeste 21 Nordeste 0 -- -- 67
2017-08-14 02:00:00 22 7 Este 18 Sudeste 0 -- -- 61
2017-08-14 01:00:00 22.9 12 Este 22 Sudeste 0 -- -- 62
2017-08-14 00:00:00 23.2 9 Sudeste 27 Sudeste 0 -- -- 67
2017-08-13 23:00:00 24.2 16 Sudeste 31 Sur 0 -- -- 62
2017-08-13 22:00:00 25.1 15 Sudeste 38 Sudeste 0 -- -- 59
2017-08-13 21:00:00 26.9 17 Sudeste 30 Sur 0 -- -- 53
2017-08-13 20:00:00 29.1 17 Sudeste 32 Sudeste 0 -- -- 43
2017-08-13 19:00:00 30.8 17 Sudeste 31 Sudeste 0 -- -- 38
2017-08-13 18:00:00 32 18 Sudeste 38 Sudeste 0 -- -- 36
2017-08-13 17:00:00 33.8 7 Este 19 Sudeste 0 -- -- 29
2017-08-13 16:00:00 32.7 7 Nordeste 18 Este 0 -- -- 29
2017-08-13 15:00:00 31.4 8 Sur 17 Sur 0 -- -- 30
2017-08-13 14:00:00 29.7 6 Sudoeste 16 Este 0 -- -- 34
2017-08-13 13:00:00 27.8 8 Sur 15 Sudoeste 0 -- -- 41
2017-08-13 12:00:00 25.9 6 Oeste 12 Sudeste 0 -- -- 47
2017-08-13 11:00:00 23.8 3 Norte 10 Oeste 0 -- -- 54
2017-08-13 10:00:00 21.9 5 Sudoeste 8 Sudoeste 0 -- -- 61
2017-08-13 09:00:00 18.7 2 Noroeste 5 Nordeste 0 -- -- 72
2017-08-13 08:00:00 16.5 2 Oeste 4 Oeste 0 -- -- 79
2017-08-13 07:00:00 16.6 2 Sudeste 4 Noroeste 0 -- -- 76
2017-08-13 06:00:00 17.3 2 Norte 5 Sudoeste 0 -- -- 72
2017-08-13 05:00:00 18.4 0 Calma 9 Sur 0 -- -- 68
2017-08-13 04:00:00 19.8 5 Este 16 Este 0 -- -- 63
2017-08-13 03:00:00 20 12 Nordeste 16 Nordeste 0 -- -- 63
2017-08-13 02:00:00 21.6 10 Este 24 Este 0 -- -- 57
2017-08-13 01:00:00 22.5 14 Sudeste 28 Sudeste 0 -- -- 55
2017-08-13 00:00:00 23.3 17 Sudeste 27 Sudeste 0 -- -- 53
2017-08-12 23:00:00 24.1 15 Sudeste 25 Sudeste 0 -- -- 50
2017-08-12 22:00:00 25.3 12 Sudeste 24 Sudeste 0 -- -- 45
2017-08-12 21:00:00 27.2 8 Este 13 Nordeste 0 -- -- 34
2017-08-12 20:00:00 29.1 9 Nordeste 13 Este 0 -- -- 31
2017-08-12 19:00:00 30.8 3 Este 19 Sur 0 -- -- 27
2017-08-12 18:00:00 31.2 7 Este 15 Norte 0 -- -- 26
2017-08-12 17:00:00 30.2 5 Oeste 15 Oeste 0 -- -- 28
2017-08-12 16:00:00 29.9 6 Noroeste 18 Norte 0 -- -- 30
2017-08-12 15:00:00 28.1 3 Oeste 18 Noroeste 0 -- -- 34
2017-08-12 14:00:00 26.1 6 Sudoeste 22 Noroeste 0 -- -- 37
2017-08-12 13:00:00 24.6 6 Noroeste 14 Noroeste 0 -- -- 39
2017-08-12 12:00:00 22.6 7 Oeste 14 Sudoeste 0 -- -- 46
2017-08-12 11:00:00 20.3 5 Sur 10 Sudoeste 0 -- -- 52
2017-08-12 10:00:00 18.2 3 Oeste 15 Nordeste 0 -- -- 58
2017-08-12 09:00:00 15.5 2 Oeste 5 Norte 0 -- -- 68
2017-08-12 08:00:00 13.3 0 Calma 4 Sudoeste 0 -- -- 74
2017-08-12 07:00:00 13.2 0 Calma 5 Sur 0 -- -- 70
2017-08-12 06:00:00 14.2 2 Oeste 4 Sur 0 -- -- 68
2017-08-12 05:00:00 15.5 3 Sudoeste 7 Sur 0 -- -- 63
2017-08-12 04:00:00 16.4 2 Sudeste 9 Sur 0 -- -- 59
2017-08-12 03:00:00 17.4 4 Sudoeste 14 Sudoeste 0 -- -- 57
2017-08-12 02:00:00 18.2 6 Sudoeste 17 Sudoeste 0 -- -- 54
2017-08-12 01:00:00 19.4 9 Sudoeste 23 Sudoeste 0 -- -- 49
2017-08-12 00:00:00 20.6 6 Sur 17 Sudoeste 0 -- -- 44
2017-08-11 23:00:00 21.6 12 Sudoeste 23 Sudoeste 0 -- -- 42
2017-08-11 22:00:00 23.2 8 Sudoeste 17 Oeste 0 -- -- 38
2017-08-11 21:00:00 25.3 12 Oeste 26 Oeste 0 -- -- 33
2017-08-11 20:00:00 28 15 Oeste 31 Oeste 0 -- -- 28
2017-08-11 19:00:00 29.1 14 Oeste 27 Oeste 0 -- -- 26
2017-08-11 18:00:00 29.4 13 Noroeste 25 Oeste 0 -- -- 26
2017-08-11 17:00:00 29 9 Oeste 21 Noroeste 0 -- -- 27
2017-08-11 16:00:00 27.5 7 Noroeste 24 Noroeste 0 -- -- 31
2017-08-11 15:00:00 25.9 8 Noroeste 22 Noroeste 0 -- -- 33
2017-08-11 14:00:00 24.4 12 Noroeste 24 Noroeste 0 -- -- 35
2017-08-11 13:00:00 23.5 8 Noroeste 24 Noroeste 0 -- -- 38
2017-08-11 12:00:00 22 13 Noroeste 23 Oeste 0 -- -- 40
2017-08-11 11:00:00 20.1 8 Noroeste 20 Noroeste 0 -- -- 46
2017-08-11 10:00:00 18.5 10 Noroeste 22 Noroeste 0 -- -- 52
2017-08-11 09:00:00 16.3 4 Oeste 19 Oeste 0 -- -- 58
2017-08-11 08:00:00 14.9 14 Noroeste 34 Oeste 0 -- -- 61
2017-08-11 07:00:00 14.8 19 Oeste 44 Oeste 0 -- -- 61
2017-08-11 06:00:00 15.1 14 Sudoeste 30 Oeste 0 -- -- 59
2017-08-11 05:00:00 15.4 17 Oeste 31 Oeste 0 -- -- 61
2017-08-11 04:00:00 15.9 16 Oeste 29 Oeste 0 -- -- 60
2017-08-11 03:00:00 16.1 13 Oeste 22 Oeste 0 -- -- 58
2017-08-11 02:00:00 17 9 Oeste 40 Oeste 0 -- -- 52
2017-08-11 01:00:00 18.2 23 Oeste 41 Oeste 0 -- -- 46
2017-08-11 00:00:00 18.7 19 Oeste 49 Oeste 0 -- -- 49
2017-08-10 23:00:00 19.7 26 Oeste 58 Oeste 0 -- -- 48
2017-08-10 22:00:00 20.9 32 Oeste 56 Oeste 0 -- -- 47
2017-08-10 21:00:00 22.4 30 Oeste 53 Oeste 0 -- -- 44
2017-08-10 20:00:00 24.7 31 Oeste 48 Oeste 0 -- -- 41
2017-08-10 19:00:00 26.7 25 Oeste 39 Oeste 0 -- -- 36
2017-08-10 18:00:00 27.4 25 Oeste 48 Noroeste 0 -- -- 35
2017-08-10 17:00:00 28.1 22 Noroeste 39 Oeste 0 -- -- 33
2017-08-10 16:00:00 28.1 15 Oeste 32 Noroeste 0 -- -- 32
2017-08-10 15:00:00 26.6 18 Noroeste 33 Oeste 0 -- -- 35
2017-08-10 14:00:00 25.3 18 Noroeste 31 Oeste 0 -- -- 36
2017-08-10 13:00:00 24.2 19 Noroeste 34 Noroeste 0 -- -- 40
2017-08-10 12:00:00 22.2 16 Oeste 35 Oeste 0 -- -- 47
2017-08-10 11:00:00 20.2 9 Noroeste 24 Oeste 0 -- -- 56
2017-08-10 10:00:00 17.8 14 Oeste 24 Oeste 0 -- -- 60
2017-08-10 09:00:00 15.5 6 Sudoeste 16 Sudoeste 0 -- -- 68
2017-08-10 08:00:00 13.2 8 Sur 16 Sudoeste 0 -- -- 76
2017-08-10 07:00:00 13 10 Sudoeste 16 Sudoeste 0 -- -- 75
2017-08-10 06:00:00 12.8 8 Sur 13 Sur 0 -- -- 74
2017-08-10 05:00:00 13.5 8 Noroeste 22 Oeste 0 -- -- 70
2017-08-10 04:00:00 14 13 Noroeste 24 Oeste 0 -- -- 67
2017-08-10 03:00:00 14.9 11 Oeste 23 Oeste 0 -- -- 64
2017-08-10 02:00:00 15.9 7 Oeste 27 Oeste 0 -- -- 61
2017-08-10 01:00:00 17 16 Oeste 25 Oeste 0 -- -- 55
2017-08-10 00:00:00 18 19 Oeste 33 Oeste 0.2 -- -- 54
2017-08-09 23:00:00 18.1 5 Oeste 23 Noroeste 0 -- -- 60
2017-08-09 22:00:00 18.1 11 Noroeste 23 Oeste 0 -- -- 66
2017-08-09 21:00:00 17.6 9 Noroeste 22 Noroeste 0 -- -- 70
2017-08-09 20:00:00 17.2 16 Noroeste 26 Noroeste 0 -- -- 79
2017-08-09 19:00:00 18.3 17 Noroeste 29 Noroeste 0 -- -- 73
2017-08-09 18:00:00 20.2 12 Norte 28 Norte 0 -- -- 65
2017-08-09 17:00:00 23.1 9 Nordeste 14 Norte 0 -- -- 51
2017-08-09 16:00:00 22.7 9 Nordeste 14 Este 0 -- -- 52
2017-08-09 15:00:00 22.1 6 Nordeste 15 Oeste 0 -- -- 54
2017-08-09 14:00:00 20.9 5 Noroeste 19 Oeste 0.2 -- -- 63
2017-08-09 13:00:00 22.7 6 Sudoeste 18 Oeste 0 -- -- 45
2017-08-09 12:00:00 22.1 5 Sur 14 Sudoeste 0 -- -- 47
2017-08-09 11:00:00 19.8 3 Sur 13 Sudoeste 0 -- -- 54
2017-08-09 10:00:00 18.7 6 Sur 14 Oeste 0 -- -- 57
2017-08-09 09:00:00 17.5 6 Oeste 13 Oeste 0 -- -- 61
2017-08-09 08:00:00 16.7 3 Oeste 14 Oeste 0 -- -- 63
2017-08-09 07:00:00 16.5 3 Oeste 17 Sudoeste 0 -- -- 62
2017-08-09 06:00:00 16.6 9 Sudoeste 17 Sudoeste 0 -- -- 63
2017-08-09 05:00:00 16.9 7 Sudoeste 15 Sur 0 -- -- 60
2017-08-09 04:00:00 17.4 6 Sudoeste 18 Sudoeste 0 -- -- 59
2017-08-09 03:00:00 18.2 6 Este 30 Oeste 0 -- -- 56
2017-08-09 02:00:00 19.4 10 Sudoeste 28 Sudoeste 0 -- -- 53
2017-08-09 01:00:00 20.6 11 Sur 26 Oeste 0 -- -- 47
2017-08-09 00:00:00 21.2 10 Sur 15 Sudoeste 0 -- -- 44
2017-08-08 23:00:00 22.1 4 Oeste 20 Oeste 0 -- -- 43
2017-08-08 22:00:00 23.3 15 Oeste 32 Oeste 0 -- -- 41
2017-08-08 21:00:00 24.9 20 Oeste 37 Noroeste 0 -- -- 38
2017-08-08 20:00:00 27 20 Noroeste 41 Oeste 0 -- -- 32
2017-08-08 19:00:00 28.6 30 Noroeste 47 Noroeste 0 -- -- 28
2017-08-08 18:00:00 30.2 29 Oeste 44 Oeste 0 -- -- 27
2017-08-08 17:00:00 30.5 26 Noroeste 40 Noroeste 0 -- -- 29
2017-08-08 16:00:00 30.2 23 Oeste 42 Oeste 0 -- -- 30
2017-08-08 15:00:00 30.2 20 Oeste 42 Sudoeste 0 -- -- 29
2017-08-08 14:00:00 29.7 20 Oeste 46 Sudoeste 0 -- -- 32
2017-08-08 13:00:00 29.1 17 Oeste 42 Oeste 0 -- -- 36
2017-08-08 12:00:00 27.3 15 Oeste 32 Sudoeste 0 -- -- 42
2017-08-08 11:00:00 25.7 17 Oeste 30 Oeste 0 -- -- 48
2017-08-08 10:00:00 23.4 9 Sudoeste 29 Sudoeste 0 -- -- 55
2017-08-08 09:00:00 22 12 Sudoeste 34 Sudoeste 0 -- -- 60
2017-08-08 08:00:00 21.3 18 Sudoeste 32 Sudoeste 0 -- -- 62
2017-08-08 07:00:00 22.3 18 Sudoeste 27 Sudoeste 0 -- -- 64
2017-08-08 06:00:00 22.7 15 Sudoeste 27 Sudoeste 0 -- -- 66
2017-08-08 05:00:00 24.7 12 Sudoeste 21 Sudoeste 0 -- -- 78
2017-08-08 04:00:00 24.9 6 Sudoeste 20 Sudeste 0 -- -- 75
2017-08-08 03:00:00 24.6 9 Este 21 Nordeste 0 -- -- 76
2017-08-08 02:00:00 25.1 15 Este 27 Nordeste 0 -- -- 74
2017-08-08 01:00:00 25.9 13 Este 31 Sudeste 0 -- -- 72
2017-08-08 00:00:00 26.1 16 Este 38 Este 0 -- -- 73
2017-08-07 23:00:00 26.3 20 Sudeste 48 Sudeste 0 -- -- 71
2017-08-07 22:00:00 26.6 20 Sudeste 46 Sudeste 0 -- -- 69
2017-08-07 21:00:00 27.4 19 Sudeste 48 Sudeste 0 -- -- 65
2017-08-07 20:00:00 28.9 19 Sudeste 42 Sudeste 0 -- -- 58
2017-08-07 19:00:00 29.7 24 Sudeste 46 Sudeste 0 -- -- 56
2017-08-07 18:00:00 31.6 23 Sudeste 42 Sudeste 0 -- -- 52
2017-08-07 17:00:00 32.7 17 Sudeste 39 Sudeste 0 -- -- 48
2017-08-07 16:00:00 33.7 18 Este 37 Sudeste 0 -- -- 46
2017-08-07 15:00:00 32.9 10 Sudeste 30 Sudeste 0 -- -- 46
2017-08-07 14:00:00 32.4 15 Nordeste 28 Nordeste 0 -- -- 50
2017-08-07 13:00:00 31.4 16 Este 29 Nordeste 0 -- -- 53
2017-08-07 12:00:00 29.9 15 Este 27 Este 0 -- -- 58
2017-08-07 11:00:00 26.3 22 Nordeste 28 Nordeste 0 -- -- 67
2017-08-07 10:00:00 25.3 15 Nordeste 22 Este 0 -- -- 72
2017-08-07 09:00:00 24.1 10 Nordeste 17 Nordeste 0 -- -- 78
2017-08-07 08:00:00 23 11 Nordeste 21 Este 0 -- -- 82
2017-08-07 07:00:00 22.8 9 Este 19 Este 0 -- -- 82
2017-08-07 06:00:00 23.1 11 Este 18 Este 0 -- -- 82
2017-08-07 05:00:00 23.9 7 Este 19 Sudeste 0 -- -- 75
2017-08-07 04:00:00 24.2 12 Este 21 Este 0 -- -- 75
2017-08-07 03:00:00 24.4 8 Este 21 Sudeste 0 -- -- 75
2017-08-07 02:00:00 24.8 11 Sudeste 28 Sudeste 0 -- -- 74
2017-08-07 01:00:00 25.2 14 Sudeste 28 Sur 0 -- -- 73
2017-08-07 00:00:00 25.5 12 Sudeste 24 Sur 0 -- -- 69
2017-08-06 23:00:00 26.4 13 Sur 28 Sur 0 -- -- 66
2017-08-06 22:00:00 27.6 15 Sur 28 Sur 0 -- -- 58
2017-08-06 21:00:00 28.8 15 Sur 35 Sur 0 -- -- 52
2017-08-06 20:00:00 30.5 17 Sudeste 31 Sudeste 0 -- -- 52
2017-08-06 19:00:00 32.6 9 Sudeste 21 Sur 0 -- -- 40
2017-08-06 18:00:00 33 8 Este 18 Sudeste 0 -- -- 38
2017-08-06 17:00:00 32.2 10 Sudeste 25 Sur 0 -- -- 38
2017-08-06 16:00:00 31.5 8 Sudoeste 16 Sur 0 -- -- 39
2017-08-06 15:00:00 31.7 6 Noroeste 18 Oeste 0 -- -- 37
2017-08-06 14:00:00 28.7 6 Sudeste 19 Oeste 0 -- -- 40
2017-08-06 13:00:00 27.7 6 Sur 18 Sur 0 -- -- 42
2017-08-06 12:00:00 25.6 6 Sur 13 Sudoeste 0 -- -- 49
2017-08-06 11:00:00 23.9 7 Sudoeste 14 Sur 0 -- -- 53
2017-08-06 10:00:00 22.5 6 Sudoeste 12 Sur 0 -- -- 58
2017-08-06 09:00:00 21.3 9 Oeste 18 Oeste 0 -- -- 61
2017-08-06 08:00:00 19.8 6 Sur 12 Sur 0 -- -- 68
2017-08-06 07:00:00 19.9 5 Sudoeste 12 Sur 0 -- -- 68
2017-08-06 06:00:00 20 5 Sur 12 Sur 0 -- -- 67
2017-08-06 05:00:00 20.4 10 Sudoeste 19 Sudoeste 0 -- -- 65
2017-08-06 04:00:00 21.2 9 Sudoeste 18 Sudoeste 0 -- -- 63
2017-08-06 03:00:00 22.3 9 Sudoeste 19 Sudoeste 0 -- -- 59
2017-08-06 02:00:00 23.8 12 Sudoeste 24 Sudoeste 0 -- -- 56
2017-08-06 01:00:00 25.7 10 Sudoeste 21 Sudoeste 0 -- -- 52
2017-08-06 00:00:00 27.3 9 Sudoeste 23 Noroeste 0 -- -- 52
2017-08-05 23:00:00 28.8 17 Oeste 25 Noroeste 0 -- -- 48
2017-08-05 22:00:00 30.1 10 Sur 29 Sudeste 0 -- -- 59
2017-08-05 21:00:00 30.9 17 Sudeste 33 Sudeste 0 -- -- 54
2017-08-05 20:00:00 32.5 21 Sudeste 39 Sudeste 0 -- -- 49
2017-08-05 19:00:00 34.1 18 Sudeste 39 Sudeste 0 -- -- 44
2017-08-05 18:00:00 35.1 18 Sudeste 32 Sudeste 0 -- -- 42
2017-08-05 17:00:00 37.6 19 Sur 33 Sur 0 -- -- 35
2017-08-05 16:00:00 38.3 12 Sur 24 Sur 0 -- -- 33
2017-08-05 15:00:00 37.9 10 Sudeste 23 Este 0 -- -- 30
2017-08-05 14:00:00 36.7 12 Este 20 Sudeste 0 -- -- 34
2017-08-05 13:00:00 34.3 9 Sudeste 16 Oeste 0 -- -- 40
2017-08-05 12:00:00 32.1 8 Sur 19 Sur 0 -- -- 47
2017-08-05 11:00:00 30.3 8 Sur 13 Sudeste 0 -- -- 53
2017-08-05 10:00:00 28.6 5 Sur 8 Sur 0 -- -- 64
2017-08-05 09:00:00 26.7 0 Calma 9 Sudeste 0 -- -- 71
2017-08-05 08:00:00 25.9 6 Este 13 Sudeste 0 -- -- 74
2017-08-05 07:00:00 25.3 7 Sudeste 19 Sudeste 0 -- -- 76
2017-08-05 06:00:00 25.5 9 Sudeste 19 Sudeste 0 -- -- 75
2017-08-05 05:00:00 26.1 10 Sudeste 17 Sudeste 0 -- -- 71
2017-08-05 04:00:00 27 10 Sudeste 16 Este 0 -- -- 62
2017-08-05 03:00:00 27.8 10 Este 25 Sudeste 0 -- -- 57
2017-08-05 02:00:00 28.9 14 Sudeste 22 Sudeste 0 -- -- 51
2017-08-05 01:00:00 29.8 11 Sudeste 26 Sudeste 0 -- -- 50
2017-08-05 00:00:00 30.4 13 Sudeste 30 Sudeste 0 -- -- 51
2017-08-04 23:00:00 32 17 Sudeste 27 Sudeste 0 -- -- 46
2017-08-04 22:00:00 34 0 Calma 6 Este 0 -- -- 40
2017-08-04 21:00:00 36.3 4 Nordeste 9 Nordeste 0 -- -- 36
2017-08-04 20:00:00 38.9 3 Noroeste 13 Oeste 0 -- -- 30
2017-08-04 19:00:00 39.2 5 Oeste 19 Nordeste 0 -- -- 29
2017-08-04 18:00:00 38.7 10 Noroeste 18 Oeste 0 -- -- 30
2017-08-04 17:00:00 38.7 8 Noroeste 20 Nordeste 0 -- -- 29
2017-08-04 16:00:00 38.4 8 Noroeste 19 Oeste 0 -- -- 29
2017-08-04 15:00:00 37.4 10 Oeste 22 Oeste 0 -- -- 32
2017-08-04 14:00:00 35.3 8 Noroeste 14 Noroeste 0 -- -- 37
2017-08-04 13:00:00 32.8 5 Sudeste 15 Sur 0 -- -- 42
2017-08-04 12:00:00 31.4 6 Sudoeste 15 Sudoeste 0 -- -- 47
2017-08-04 11:00:00 29.1 5 Sur 12 Sur 0 -- -- 53
2017-08-04 10:00:00 26.9 5 Sur 9 Sur 0 -- -- 59
2017-08-04 09:00:00 25 3 Sudeste 6 Sur 0 -- -- 60
2017-08-04 08:00:00 22.5 2 Sudoeste 8 Sur 0 -- -- 70
2017-08-04 07:00:00 21.9 2 Noroeste 5 Sudoeste 0 -- -- 69
2017-08-04 06:00:00 23.1 3 Norte 12 Oeste 0 -- -- 65
2017-08-04 05:00:00 24.5 0 Calma 5 Oeste 0 -- -- 58
2017-08-04 04:00:00 25.3 3 Oeste 7 Este 0 -- -- 55
2017-08-04 03:00:00 26.6 0 Calma 8 Nordeste 0 -- -- 51
2017-08-04 02:00:00 28.8 10 Este 18 Nordeste 0 -- -- 44
2017-08-04 01:00:00 30.2 11 Sudeste 19 Sudeste 0 -- -- 38
2017-08-04 00:00:00 31.2 12 Sudeste 23 Sur 0 -- -- 36
2017-08-03 23:00:00 31.7 13 Sudeste 23 Sudeste 0 -- -- 38
2017-08-03 22:00:00 32.6 12 Sudeste 25 Sudeste 0 -- -- 34
2017-08-03 21:00:00 34.3 10 Sudeste 25 Sudeste 0 -- -- 34
2017-08-03 20:00:00 36.7 14 Sudeste 24 Sudeste 0 -- -- 32
2017-08-03 19:00:00 39.3 10 Nordeste 25 Nordeste 0 -- -- 25
2017-08-03 18:00:00 39.9 9 Nordeste 26 Nordeste 0 -- -- 25
2017-08-03 17:00:00 40 10 Nordeste 22 Nordeste 0 -- -- 27
2017-08-03 16:00:00 39.5 6 Norte 13 Noroeste 0 -- -- 27
2017-08-03 15:00:00 38.8 6 Nordeste 18 Nordeste 0 -- -- 29
2017-08-03 14:00:00 37.3 7 Nordeste 16 Nordeste 0 -- -- 29
2017-08-03 13:00:00 34.5 9 Noroeste 16 Noroeste 0 -- -- 34
2017-08-03 12:00:00 31.9 6 Noroeste 12 Oeste 0 -- -- 43
2017-08-03 11:00:00 29.3 5 Oeste 11 Oeste 0 -- -- 54
2017-08-03 10:00:00 26.7 6 Oeste 10 Noroeste 0 -- -- 61
2017-08-03 09:00:00 24.3 5 Oeste 9 Oeste 0 -- -- 68
2017-08-03 08:00:00 21.5 3 Norte 9 Oeste 0 -- -- 77
2017-08-03 07:00:00 22.3 0 Calma 5 Oeste 0 -- -- 71
2017-08-03 06:00:00 22.5 0 Calma 6 Noroeste 0 -- -- 70
2017-08-03 05:00:00 23.4 8 Norte 11 Norte 0 -- -- 69
2017-08-03 04:00:00 24.5 3 Norte 5 Noroeste 0 -- -- 61
2017-08-03 03:00:00 25.5 2 Noroeste 5 Oeste 0 -- -- 59
2017-08-03 02:00:00 26.4 2 Norte 11 Este 0 -- -- 56
2017-08-03 01:00:00 28.1 8 Sudeste 22 Sudeste 0 -- -- 50
2017-08-03 00:00:00 28.2 14 Sudeste 23 Sudeste 0 -- -- 51
2017-08-02 23:00:00 29 12 Sudeste 28 Sudeste 0 -- -- 49
2017-08-02 22:00:00 29.9 15 Sudeste 28 Este 0 -- -- 46
2017-08-02 21:00:00 31.4 19 Sudeste 35 Sudeste 0 -- -- 45
2017-08-02 20:00:00 32.8 13 Sudeste 22 Sudeste 0 -- -- 41
2017-08-02 19:00:00 33.3 13 Sudeste 32 Sudeste 0 -- -- 46
2017-08-02 18:00:00 34.9 11 Este 18 Este 0 -- -- 29
2017-08-02 17:00:00 36.8 6 Sudeste 15 Sudoeste 0 -- -- 27
2017-08-02 16:00:00 36.3 10 Oeste 28 Oeste 0 -- -- 28
2017-08-02 15:00:00 36.3 19 Oeste 41 Oeste 0 -- -- 28
2017-08-02 14:00:00 36.2 11 Oeste 30 Oeste 0 -- -- 35
2017-08-02 13:00:00 33.6 10 Sur 18 Sur 0 -- -- 44
2017-08-02 12:00:00 32.2 6 Oeste 14 Nordeste 0 -- -- 51
2017-08-02 11:00:00 28.5 3 Noroeste 15 Oeste 0 -- -- 60
2017-08-02 10:00:00 26.1 6 Sudoeste 12 Nordeste 0 -- -- 65
2017-08-02 09:00:00 23.7 0 Calma 5 Nordeste 0 -- -- 74
2017-08-02 08:00:00 22.3 2 Sur 6 Oeste 0 -- -- 79
2017-08-02 07:00:00 22.7 2 Sur 9 Sur 0 -- -- 74
2017-08-02 06:00:00 23.3 3 Sur 9 Norte 0 -- -- 73
2017-08-02 05:00:00 23.6 3 Norte 14 Sudeste 0 -- -- 70
2017-08-02 04:00:00 24 4 Sudoeste 28 Nordeste 0 -- -- 71
2017-08-02 03:00:00 24.7 21 Nordeste 27 Nordeste 0 -- -- 67
2017-08-02 02:00:00 25.6 6 Este 15 Este 0 -- -- 66
2017-08-02 01:00:00 26.8 9 Este 24 Sudeste 0 -- -- 62
2017-08-02 00:00:00 26.6 11 Sudeste 24 Sudeste 0 -- -- 68
2017-08-01 23:00:00 26.6 13 Sudeste 31 Sudeste 0 -- -- 69
2017-08-01 22:00:00 27.2 17 Sudeste 34 Sudeste 0 -- -- 67
2017-08-01 21:00:00 28.1 14 Sudeste 39 Sudeste 0 -- -- 63
2017-08-01 20:00:00 29.9 12 Este 30 Nordeste 0 -- -- 50
2017-08-01 19:00:00 30.5 14 Nordeste 22 Este 0 -- -- 55
2017-08-01 18:00:00 28.8 14 Sudeste 26 Sudeste 0 -- -- 64
2017-08-01 17:00:00 29.6 8 Sudeste 17 Este 0 -- -- 52
2017-08-01 16:00:00 27.7 12 Este 21 Sudeste 0 -- -- 59
2017-08-01 15:00:00 29.6 8 Nordeste 17 Nordeste 0 -- -- 52
2017-08-01 14:00:00 28.9 7 Oeste 13 Sur 0 -- -- 52
2017-08-01 13:00:00 28 3 Norte 12 Sur 0 -- -- 53
2017-08-01 12:00:00 27.3 7 Sudoeste 13 Sudoeste 0 -- -- 55
2017-08-01 11:00:00 26.1 8 Sur 16 Sur 0 -- -- 59
2017-08-01 10:00:00 24.7 9 Sur 15 Sur 0 -- -- 62
2017-08-01 09:00:00 23.1 10 Sudoeste 19 Sudoeste 0 -- -- 66
2017-08-01 08:00:00 21.7 11 Sur 16 Sur 0 -- -- 70
2017-08-01 07:00:00 21.9 10 Sur 21 Sur 0 -- -- 72
2017-08-01 06:00:00 23.6 9 Sur 18 Este 0 -- -- 79
2017-08-01 05:00:00 23.9 8 Este 15 Nordeste 0 -- -- 77
2017-08-01 04:00:00 24.4 9 Este 26 Sudeste 0 -- -- 77
2017-08-01 03:00:00 25.1 16 Sudeste 33 Sudeste 0 -- -- 74
2017-08-01 02:00:00 25.7 14 Sudeste 31 Este 0 -- -- 71
2017-08-01 01:00:00 25.6 13 Sudeste 30 Sudeste 0 -- -- 71
2017-08-01 00:00:00 26.2 16 Sudeste 34 Este 0 -- -- 66
2017-07-31 23:00:00 26.8 14 Sudeste 33 Este 0 -- -- 63
2017-07-31 22:00:00 27.8 10 Este 32 Sudeste 0 -- -- 58
2017-07-31 21:00:00 29.1 18 Sudeste 46 Sudeste 0 -- -- 54
2017-07-31 20:00:00 31.8 13 Sudeste 30 Sudeste 0 -- -- 45
2017-07-31 19:00:00 33 22 Sudeste 41 Sur 0 -- -- 40
2017-07-31 18:00:00 34.2 27 Sudeste 48 Sudeste 0 -- -- 35
2017-07-31 17:00:00 34.9 24 Sudeste 41 Sudeste 0 -- -- 33
2017-07-31 16:00:00 35 24 Sudeste 40 Sur 0 -- -- 35
2017-07-31 15:00:00 34.6 19 Sur 33 Sudeste 0 -- -- 39
2017-07-31 14:00:00 33.1 17 Sudeste 34 Sur 0 -- -- 43
2017-07-31 13:00:00 32.6 12 Este 22 Este 0 -- -- 46
2017-07-31 12:00:00 30.8 8 Este 24 Nordeste 0 -- -- 52
2017-07-31 11:00:00 28.3 9 Sudoeste 22 Sudeste 0 -- -- 60
2017-07-31 10:00:00 26.2 11 Sudeste 23 Sudeste 0 -- -- 66
2017-07-31 09:00:00 24.3 8 Sur 18 Sur 0 -- -- 72
2017-07-31 08:00:00 23.2 5 Sur 15 Sur 0 -- -- 67
2017-07-31 07:00:00 23.4 9 Sudeste 23 Sudeste 0 -- -- 74
2017-07-31 06:00:00 24.3 17 Sudeste 32 Sudeste 0 -- -- 78
2017-07-31 05:00:00 25 18 Sudeste 29 Sur 0 -- -- 68
2017-07-31 04:00:00 25.2 12 Este 18 Sudeste 0 -- -- 62
2017-07-31 03:00:00 24.9 7 Este 28 Sudeste 0 -- -- 56
2017-07-31 02:00:00 26 15 Sudeste 33 Sudeste 0 -- -- 61
2017-07-31 01:00:00 26.2 13 Sudeste 30 Este 0 -- -- 59
2017-07-31 00:00:00 26.3 14 Este 37 Sudeste 0 -- -- 64
2017-07-30 23:00:00 26.5 21 Sudeste 37 Sudeste 0 -- -- 67
2017-07-30 22:00:00 27.3 23 Sudeste 40 Sudeste 0 -- -- 65
2017-07-30 21:00:00 29.1 18 Sudeste 37 Sur 0 -- -- 58
2017-07-30 20:00:00 30.9 24 Sur 46 Sur 0 -- -- 52
2017-07-30 19:00:00 32.5 23 Sur 47 Sur 0 -- -- 47
2017-07-30 18:00:00 35 25 Sur 47 Sudeste 0 -- -- 44
2017-07-30 17:00:00 37.3 22 Sur 33 Sudeste 0 -- -- 34
2017-07-30 16:00:00 37.9 13 Sudeste 28 Nordeste 0 -- -- 31
2017-07-30 15:00:00 36.3 17 Sudeste 27 Sudeste 0 -- -- 35
2017-07-30 14:00:00 35 8 Sudeste 18 Sudeste 0 -- -- 42
2017-07-30 13:00:00 32.8 7 Sudeste 17 Sudeste 0 -- -- 48
2017-07-30 12:00:00 30.9 6 Sudeste 18 Sudoeste 0 -- -- 49
2017-07-30 11:00:00 29.1 6 Sudeste 15 Este 0 -- -- 52
2017-07-30 10:00:00 26.9 4 Nordeste 15 Nordeste 0 -- -- 53
2017-07-30 09:00:00 24.6 11 Nordeste 17 Nordeste 0 -- -- 54
2017-07-30 08:00:00 21.7 3 Oeste 4 Oeste 0 -- -- 72
2017-07-30 07:00:00 22.2 2 Noroeste 14 Este 0 -- -- 68
2017-07-30 06:00:00 23.5 7 Este 12 Este 0 -- -- 61
2017-07-30 05:00:00 24.5 5 Este 14 Este 0 -- -- 58
2017-07-30 04:00:00 25.2 5 Sudeste 17 Sudeste 0 -- -- 53
2017-07-30 03:00:00 25.5 11 Sudeste 18 Este 0 -- -- 52
2017-07-30 02:00:00 25.8 9 Este 17 Este 0 -- -- 53
2017-07-30 01:00:00 26.1 10 Sudeste 21 Sudeste 0 -- -- 53
2017-07-30 00:00:00 26.3 14 Sudeste 32 Sudeste 0 -- -- 58
2017-07-29 23:00:00 27.1 20 Sudeste 35 Sudeste 0 -- -- 58
2017-07-29 22:00:00 27.6 23 Sudeste 34 Sudeste 0 -- -- 62
2017-07-29 21:00:00 28.7 16 Sudeste 36 Sudeste 0 -- -- 62
2017-07-29 20:00:00 30.5 18 Sudeste 37 Sudeste 0 -- -- 58
2017-07-29 19:00:00 32.3 20 Sudeste 35 Sudeste 0 -- -- 52
2017-07-29 18:00:00 33.6 18 Sur 29 Sudeste 0 -- -- 45
2017-07-29 17:00:00 34.3 19 Sudeste 31 Sur 0 -- -- 43
2017-07-29 16:00:00 34.5 15 Sur 28 Sur 0 -- -- 44
2017-07-29 15:00:00 34.2 12 Sudeste 23 Sudeste 0 -- -- 44
2017-07-29 14:00:00 32.4 10 Sudeste 26 Sur 0 -- -- 49
2017-07-29 13:00:00 31.8 10 Sudeste 28 Sudeste 0 -- -- 51
2017-07-29 12:00:00 29.9 11 Sudeste 24 Sudeste 0 -- -- 55
2017-07-29 11:00:00 28.6 11 Este 20 Sudeste 0 -- -- 60
2017-07-29 10:00:00 27.1 9 Este 14 Este 0 -- -- 64
2017-07-29 09:00:00 24.3 7 Este 16 Nordeste 0 -- -- 70
2017-07-29 08:00:00 22.2 10 Nordeste 14 Nordeste 0 -- -- 76
2017-07-29 07:00:00 22 5 Este 12 Este 0 -- -- 79
2017-07-29 06:00:00 21.6 0 Calma 8 Sur 0 -- -- 81
2017-07-29 05:00:00 23.1 4 Sudeste 17 Nordeste 0 -- -- 76
2017-07-29 04:00:00 22.9 10 Este 20 Nordeste 0 -- -- 76
2017-07-29 03:00:00 23.8 12 Este 18 Este 0 -- -- 75
2017-07-29 02:00:00 24.7 7 Este 16 Sudeste 0 -- -- 73
2017-07-29 01:00:00 25.6 12 Sudeste 30 Sudeste 0 -- -- 66
2017-07-29 00:00:00 25.5 12 Este 31 Sudeste 0 -- -- 67
2017-07-28 23:00:00 26.6 16 Sudeste 31 Sudeste 0 -- -- 63
2017-07-28 22:00:00 27.6 15 Sudeste 35 Sur 0 -- -- 63
2017-07-28 21:00:00 29.2 19 Sudeste 35 Sudeste 0 -- -- 56
2017-07-28 20:00:00 31.5 17 Sudeste 36 Sudeste 0 -- -- 47
2017-07-28 19:00:00 33.3 21 Sudeste 33 Sudeste 0 -- -- 44
2017-07-28 18:00:00 36.1 11 Este 21 Este 0 -- -- 33
2017-07-28 17:00:00 35.7 8 Sur 19 Sudeste 0 -- -- 36
2017-07-28 16:00:00 35.2 6 Sudeste 21 Sudoeste 0 -- -- 39
2017-07-28 15:00:00 34.2 8 Sur 20 Este 0 -- -- 38
2017-07-28 14:00:00 31.9 9 Sudeste 19 Sudeste 0 -- -- 43
2017-07-28 13:00:00 30.8 7 Oeste 17 Sudeste 0 -- -- 47
2017-07-28 12:00:00 28.7 10 Sudeste 18 Sur 0 -- -- 52
2017-07-28 11:00:00 26.9 5 Sudoeste 14 Sur 0 -- -- 57
2017-07-28 10:00:00 25.1 6 Sur 13 Sur 0 -- -- 62
2017-07-28 09:00:00 23.2 8 Sur 15 Sur 0 -- -- 67
2017-07-28 08:00:00 22.3 9 Sur 19 Sur 0 -- -- 69
2017-07-28 07:00:00 22.4 14 Sudeste 21 Sur 0 -- -- 70
2017-07-28 06:00:00 23.2 6 Este 19 Sudeste 0 -- -- 82
2017-07-28 05:00:00 23.3 8 Este 21 Este 0 -- -- 76
2017-07-28 04:00:00 24.1 6 Este 31 Nordeste 0 -- -- 67
2017-07-28 03:00:00 24.9 25 Nordeste 35 Nordeste 0 -- -- 63
2017-07-28 02:00:00 25.6 17 Nordeste 23 Nordeste 0 -- -- 61
2017-07-28 01:00:00 27.2 9 Este 34 Sudeste 0 -- -- 63
2017-07-28 00:00:00 27.8 21 Sudeste 32 Sudeste 0 -- -- 64
2017-07-27 23:00:00 28.9 18 Sudeste 28 Sudeste 0 -- -- 59
2017-07-27 22:00:00 30.1 15 Sudeste 25 Sudeste 0 -- -- 52
2017-07-27 21:00:00 32 17 Sudeste 34 Sudeste 0 -- -- 47
2017-07-27 20:00:00 35.7 9 Sudeste 14 Este 0 -- -- 26
2017-07-27 19:00:00 37.6 6 Norte 18 Nordeste 0 -- -- 24
2017-07-27 18:00:00 37 10 Norte 22 Norte 0 -- -- 24
2017-07-27 17:00:00 37.7 10 Noroeste 26 Oeste 0 -- -- 22
2017-07-27 16:00:00 37.4 9 Oeste 25 Oeste 0 -- -- 23
2017-07-27 15:00:00 35.5 8 Oeste 20 Oeste 0 -- -- 25
2017-07-27 14:00:00 33.4 4 Norte 13 Sur 0 -- -- 30
2017-07-27 13:00:00 31.4 5 Noroeste 14 Noroeste 0 -- -- 32
2017-07-27 12:00:00 28.8 6 Norte 12 Noroeste 0 -- -- 39
2017-07-27 11:00:00 26.7 6 Noroeste 16 Oeste 0 -- -- 43
2017-07-27 10:00:00 23.9 3 Oeste 8 Nordeste 0 -- -- 52
2017-07-27 09:00:00 21.8 4 Noroeste 9 Noroeste 0 -- -- 58
2017-07-27 08:00:00 20.2 4 Nordeste 5 Nordeste 0 -- -- 61
2017-07-27 07:00:00 18.8 3 Norte 6 Oeste 0 -- -- 64
2017-07-27 06:00:00 19.7 3 Sur 8 Oeste 0 -- -- 61
2017-07-27 05:00:00 20.9 0 Calma 10 Sur 0 -- -- 57
2017-07-27 04:00:00 21 3 Nordeste 11 Norte 0 -- -- 56
2017-07-27 03:00:00 22.8 0 Calma 21 Sudoeste 0 -- -- 50
2017-07-27 02:00:00 24.3 12 Sudoeste 20 Sudoeste 0 -- -- 46
2017-07-27 01:00:00 25.4 11 Sudoeste 21 Sudoeste 0 -- -- 39
2017-07-27 00:00:00 26.3 8 Sur 19 Sur 0 -- -- 38
2017-07-26 23:00:00 27.9 8 Oeste 18 Oeste 0 -- -- 36
2017-07-26 22:00:00 29.1 10 Noroeste 22 Oeste 0 -- -- 35
2017-07-26 21:00:00 31 10 Noroeste 18 Oeste 0 -- -- 36
2017-07-26 20:00:00 32.8 4 Noroeste 12 Sudoeste 0 -- -- 30
2017-07-26 19:00:00 32.9 5 Sudoeste 12 Sur 0 -- -- 29
2017-07-26 18:00:00 32.6 6 Noroeste 14 Noroeste 0 -- -- 29
2017-07-26 17:00:00 32.1 7 Norte 18 Noroeste 0 -- -- 30
2017-07-26 16:00:00 30.1 9 Sur 17 Norte 0 -- -- 35
2017-07-26 15:00:00 29 10 Noroeste 17 Noroeste 0 -- -- 37
2017-07-26 14:00:00 27.6 7 Noroeste 17 Noroeste 0 -- -- 40
2017-07-26 13:00:00 26.2 6 Noroeste 18 Noroeste 0 -- -- 43
2017-07-26 12:00:00 23.9 5 Sudoeste 15 Noroeste 0 -- -- 48
2017-07-26 11:00:00 21.7 9 Noroeste 20 Oeste 0 -- -- 53
2017-07-26 10:00:00 20.3 10 Oeste 23 Oeste 0 -- -- 57
2017-07-26 09:00:00 18.2 12 Oeste 23 Oeste 0 -- -- 63
2017-07-26 08:00:00 16.5 13 Sudoeste 20 Sudoeste 0 -- -- 69
2017-07-26 07:00:00 16 6 Oeste 17 Oeste 0 -- -- 70
2017-07-26 06:00:00 16.4 9 Sudoeste 19 Sudoeste 0 -- -- 69
2017-07-26 05:00:00 17 6 Sudoeste 22 Sudoeste 0 -- -- 67
2017-07-26 04:00:00 17.5 10 Sudoeste 20 Sudoeste 0 -- -- 65
2017-07-26 03:00:00 18 9 Oeste 24 Sudoeste 0 -- -- 62
2017-07-26 02:00:00 18.5 14 Sudoeste 31 Sudoeste 0 -- -- 60
2017-07-26 01:00:00 19.4 14 Sudoeste 32 Sudoeste 0 -- -- 57
2017-07-26 00:00:00 20.5 15 Sudoeste 27 Sudoeste 0 -- -- 52
2017-07-25 23:00:00 21.9 11 Sudoeste 32 Oeste 0 -- -- 50
2017-07-25 22:00:00 23.7 9 Oeste 22 Oeste 0 -- -- 45
2017-07-25 21:00:00 25.4 15 Oeste 36 Oeste 0 -- -- 42
2017-07-25 20:00:00 27.4 17 Oeste 39 Oeste 0 -- -- 38
2017-07-25 19:00:00 30.5 20 Oeste 35 Sudoeste 0 -- -- 33
2017-07-25 18:00:00 31.5 16 Oeste 41 Oeste 0 -- -- 31
2017-07-25 17:00:00 31.2 20 Oeste 46 Oeste 0 -- -- 32
2017-07-25 16:00:00 30.8 15 Oeste 39 Oeste 0 -- -- 32
2017-07-25 15:00:00 30.2 15 Oeste 32 Oeste 0 -- -- 32
2017-07-25 14:00:00 29 13 Oeste 41 Sudoeste 0 -- -- 35
2017-07-25 13:00:00 27.2 13 Sudoeste 30 Oeste 0 -- -- 37
2017-07-25 12:00:00 25.7 10 Sudoeste 22 Sudoeste 0 -- -- 39
2017-07-25 11:00:00 23.1 11 Sudoeste 21 Oeste 0 -- -- 48
2017-07-25 10:00:00 21.8 11 Noroeste 23 Oeste 0 -- -- 51
2017-07-25 09:00:00 19.6 10 Oeste 17 Oeste 0 -- -- 59
2017-07-25 08:00:00 17.6 5 Sur 17 Sudoeste 0 -- -- 69
2017-07-25 07:00:00 16.4 4 Oeste 8 Oeste 0 -- -- 72
2017-07-25 06:00:00 17.2 7 Sudoeste 20 Oeste 0 -- -- 70
2017-07-25 05:00:00 18 9 Oeste 27 Oeste 0 -- -- 66
2017-07-25 04:00:00 18.4 12 Sudoeste 25 Oeste 0 -- -- 66
2017-07-25 03:00:00 19 12 Sudoeste 32 Oeste 0 -- -- 65
2017-07-25 02:00:00 20.1 12 Sudoeste 31 Oeste 0 -- -- 60
2017-07-25 01:00:00 21.4 19 Oeste 39 Oeste 0 -- -- 54
2017-07-25 00:00:00 22.1 25 Oeste 44 Oeste 0 -- -- 53
2017-07-24 23:00:00 22.7 20 Oeste 46 Noroeste 0 -- -- 53
2017-07-24 22:00:00 24 30 Oeste 52 Oeste 0 -- -- 49
2017-07-24 21:00:00 25.9 35 Oeste 60 Oeste 0 -- -- 44
2017-07-24 20:00:00 28.2 36 Oeste 66 Oeste 0 -- -- 39
2017-07-24 19:00:00 29.4 37 Oeste 61 Noroeste 0 -- -- 36
2017-07-24 18:00:00 30.3 32 Noroeste 57 Oeste 0 -- -- 33
2017-07-24 17:00:00 30.8 36 Oeste 51 Oeste 0 -- -- 34
2017-07-24 16:00:00 31 36 Oeste 54 Oeste 0 -- -- 33
2017-07-24 15:00:00 30.6 28 Noroeste 57 Oeste 0 -- -- 35
2017-07-24 14:00:00 29.9 29 Oeste 57 Oeste 0 -- -- 36
2017-07-24 13:00:00 28.8 36 Oeste 59 Oeste 0 -- -- 39
2017-07-24 12:00:00 28 30 Noroeste 48 Oeste 0 -- -- 42
2017-07-24 11:00:00 26.4 29 Oeste 44 Noroeste 0 -- -- 47
2017-07-24 10:00:00 25.2 22 Oeste 38 Oeste 0 -- -- 51
2017-07-24 09:00:00 22.3 10 Oeste 17 Sudoeste 0 -- -- 63
2017-07-24 08:00:00 20 10 Sudoeste 23 Sudoeste 0 -- -- 70
2017-07-24 07:00:00 19.2 12 Sudoeste 18 Sudoeste 0 -- -- 69
2017-07-24 06:00:00 19 6 Sudoeste 14 Oeste 0 -- -- 65
2017-07-24 05:00:00 19.3 9 Sudoeste 16 Sudoeste 0 -- -- 61
2017-07-24 04:00:00 19.7 5 Oeste 12 Oeste 0 -- -- 62
2017-07-24 03:00:00 21.5 4 Oeste 18 Sudoeste 0 -- -- 58
2017-07-24 02:00:00 22.6 14 Sudoeste 22 Sudoeste 0 -- -- 61
2017-07-24 01:00:00 23 6 Sudeste 18 Sur 0 -- -- 64
2017-07-24 00:00:00 22.8 9 Sudeste 19 Sudeste 0 -- -- 67
2017-07-23 23:00:00 22.6 9 Sudeste 21 Sudeste 0 -- -- 66
2017-07-23 22:00:00 24.4 11 Sudeste 18 Sudeste 0 -- -- 58
2017-07-23 21:00:00 25.9 5 Sur 10 Sudeste 0 -- -- 53
2017-07-23 20:00:00 26.4 9 Sur 22 Sudoeste 0 -- -- 51
2017-07-23 19:00:00 28.3 11 Sudoeste 28 Sudoeste 0 -- -- 51
2017-07-23 18:00:00 24.8 12 Este 24 Sudeste 0 -- -- 63
2017-07-23 17:00:00 26.1 11 Sudeste 27 Sudeste 0 -- -- 67
2017-07-23 16:00:00 27.9 14 Sur 29 Sudeste 0 -- -- 56
2017-07-23 15:00:00 29.4 10 Sur 21 Sur 0 -- -- 49
2017-07-23 14:00:00 27.9 11 Sur 18 Sur 0 -- -- 52
2017-07-23 13:00:00 26.9 5 Nordeste 15 Sur 0 -- -- 54
2017-07-23 12:00:00 25 10 Sur 18 Sudoeste 0 -- -- 57
2017-07-23 11:00:00 22.8 9 Sur 22 Sur 0 -- -- 63
2017-07-23 10:00:00 22.2 9 Sur 14 Sur 0 -- -- 67
2017-07-23 09:00:00 21.8 5 Oeste 13 Sur 0 -- -- 69
2017-07-23 08:00:00 21.6 6 Sur 14 Sur 0 -- -- 68
2017-07-23 07:00:00 22 8 Sudoeste 13 Sur 0 -- -- 70
2017-07-23 06:00:00 22.5 10 Sur 15 Sur 0 -- -- 76
2017-07-23 05:00:00 23 0 Calma 9 Noroeste 0 -- -- 82
2017-07-23 04:00:00 23.2 5 Noroeste 10 Este 0 -- -- 80
2017-07-23 03:00:00 24.2 5 Este 15 Sudeste 0 -- -- 76
2017-07-23 02:00:00 24.5 7 Sudeste 17 Este 0 -- -- 77
2017-07-23 01:00:00 24.9 10 Sudeste 29 Sudeste 0 -- -- 76
2017-07-23 00:00:00 25.6 14 Sudeste 28 Sur 0 -- -- 72
2017-07-22 23:00:00 26 12 Sudeste 22 Sudeste 0 -- -- 72
2017-07-22 22:00:00 26.7 13 Sudeste 27 Sudeste 0 -- -- 69
2017-07-22 21:00:00 27.6 17 Sudeste 35 Sudeste 0 -- -- 65
2017-07-22 20:00:00 29.1 19 Sudeste 32 Sudeste 0 -- -- 59
2017-07-22 19:00:00 30.2 19 Sudeste 32 Sudeste 0 -- -- 55
2017-07-22 18:00:00 31 18 Sudeste 33 Sudeste 0 -- -- 52
2017-07-22 17:00:00 32.2 14 Sudeste 28 Sudeste 0 -- -- 47
2017-07-22 16:00:00 32.2 16 Sudeste 30 Sudeste 0 -- -- 44
2017-07-22 15:00:00 31.9 14 Este 26 Sur 0 -- -- 46
2017-07-22 14:00:00 30.5 9 Este 24 Sudeste 0 -- -- 51
2017-07-22 13:00:00 28.8 6 Sudoeste 19 Nordeste 0 -- -- 59
2017-07-22 12:00:00 26 5 Sudeste 14 Sur 0 -- -- 67
2017-07-22 11:00:00 24.7 4 Sudoeste 13 Sudoeste 0 -- -- 72
2017-07-22 10:00:00 23.3 3 Oeste 7 Noroeste 0 -- -- 76
2017-07-22 09:00:00 22 4 Oeste 8 Sudoeste 0 -- -- 80
2017-07-22 08:00:00 21.1 3 Oeste 4 Oeste 0 -- -- 83
2017-07-22 07:00:00 21.1 3 Oeste 7 Nordeste 0 -- -- 82
2017-07-22 06:00:00 21.4 2 Nordeste 8 Este 0 -- -- 80
2017-07-22 05:00:00 21.3 6 Nordeste 18 Nordeste 0 -- -- 80
2017-07-22 04:00:00 21.5 12 Nordeste 20 Nordeste 0 -- -- 80
2017-07-22 03:00:00 21.8 10 Nordeste 17 Este 0 -- -- 79
2017-07-22 02:00:00 22.6 7 Este 15 Sudeste 0 -- -- 70
2017-07-22 01:00:00 23 9 Sudeste 22 Sudeste 0 -- -- 71
2017-07-22 00:00:00 23.7 10 Sudeste 20 Sudeste 0 -- -- 67
2017-07-21 23:00:00 24.3 13 Sudeste 22 Sur 0 -- -- 65
2017-07-21 22:00:00 25.1 14 Sur 24 Sudeste 0 -- -- 63
2017-07-21 21:00:00 26.5 14 Sudeste 29 Sur 0 -- -- 58
2017-07-21 20:00:00 27.7 18 Sudeste 32 Sur 0 -- -- 53
2017-07-21 19:00:00 28.4 16 Sudeste 30 Sur 0 -- -- 49
2017-07-21 18:00:00 29.2 14 Sudeste 27 Sudeste 0 -- -- 50
2017-07-21 17:00:00 29.3 12 Este 26 Sudeste 0 -- -- 51
2017-07-21 16:00:00 28.6 10 Este 23 Este 0 -- -- 56
2017-07-21 15:00:00 26.9 12 Este 28 Este 0 -- -- 62
2017-07-21 14:00:00 27 12 Este 23 Este 0 -- -- 63
2017-07-21 13:00:00 26.1 11 Este 22 Este 0.2 -- -- 64
2017-07-21 12:00:00 22.9 8 Noroeste 14 Noroeste 0 -- -- 78
2017-07-21 11:00:00 20.4 4 Sudeste 13 Sur 0 -- -- 79
2017-07-21 10:00:00 18.9 6 Sudoeste 18 Sudoeste 0.8 -- -- 87
2017-07-21 09:00:00 18.3 5 Sudeste 17 Sudoeste 2 -- -- 82
2017-07-21 08:00:00 20.6 3 Sur 9 Sur 0 -- -- 65
2017-07-21 07:00:00 20.2 3 Sudeste 14 Sur 0 -- -- 66
2017-07-21 06:00:00 20.7 6 Sudeste 12 Sudeste 0 -- -- 64
2017-07-21 05:00:00 21.4 6 Sur 13 Sur 0 -- -- 63
2017-07-21 04:00:00 22.2 6 Sur 19 Sudeste 0 -- -- 62
2017-07-21 03:00:00 23.6 10 Este 21 Este 0 -- -- 74
2017-07-21 02:00:00 23.9 11 Sudeste 23 Este 0 -- -- 73
2017-07-21 01:00:00 24.1 4 Sur 21 Sur 0 -- -- 71
2017-07-21 00:00:00 24.5 16 Sudeste 35 Sudeste 0 -- -- 68
2017-07-20 23:00:00 25 17 Sudeste 33 Sudeste 0 -- -- 69
2017-07-20 22:00:00 26.5 19 Sudeste 32 Sudeste 0 -- -- 63
2017-07-20 21:00:00 28.3 20 Sur 35 Sudeste 0 -- -- 54
2017-07-20 20:00:00 31.7 14 Sur 24 Sur 0 -- -- 42
2017-07-20 19:00:00 32.8 9 Sudoeste 15 Sudoeste 0 -- -- 36
2017-07-20 18:00:00 32.6 5 Sudoeste 19 Oeste 0 -- -- 39
2017-07-20 17:00:00 32.7 8 Oeste 16 Sudoeste 0 -- -- 41
2017-07-20 16:00:00 31.9 6 Noroeste 19 Nordeste 0 -- -- 44
2017-07-20 15:00:00 30.4 10 Noroeste 28 Oeste 0 -- -- 47
2017-07-20 14:00:00 28.9 4 Sudeste 16 Sudeste 0 -- -- 51
2017-07-20 13:00:00 26.9 6 Noroeste 12 Sur 0 -- -- 57
2017-07-20 12:00:00 24.7 4 Sur 14 Sudoeste 0 -- -- 61
2017-07-20 11:00:00 22.6 10 Sur 16 Sur 0 -- -- 67
2017-07-20 10:00:00 22 10 Sur 15 Sur 0 -- -- 68
2017-07-20 09:00:00 21.7 8 Sur 13 Sur 0 -- -- 71
2017-07-20 08:00:00 21.1 0 Calma 12 Oeste 0 -- -- 74
2017-07-20 07:00:00 20.9 4 Oeste 14 Oeste 0 -- -- 75
2017-07-20 06:00:00 21.8 6 Noroeste 9 Noroeste 0 -- -- 76
2017-07-20 05:00:00 23 5 Nordeste 18 Nordeste 0 -- -- 73
2017-07-20 04:00:00 23.1 14 Nordeste 21 Nordeste 0 -- -- 70
2017-07-20 03:00:00 23.6 13 Nordeste 17 Este 0 -- -- 65
2017-07-20 02:00:00 24.5 9 Este 25 Este 0 -- -- 64
2017-07-20 01:00:00 24.7 9 Este 22 Este 0 -- -- 68
2017-07-20 00:00:00 25.2 16 Sudeste 32 Sudeste 0 -- -- 65
2017-07-19 23:00:00 26.1 13 Sudeste 35 Este 0 -- -- 56
2017-07-19 22:00:00 26.8 15 Sudeste 40 Sudeste 0 -- -- 42
2017-07-19 21:00:00 28.6 17 Sudeste 38 Sur 0 -- -- 35
2017-07-19 20:00:00 29.8 16 Sudeste 34 Sudeste 0 -- -- 31
2017-07-19 19:00:00 30.2 13 Sudeste 42 Sudeste 0 -- -- 32
2017-07-19 18:00:00 31 19 Sudeste 42 Sudeste 0 -- -- 35
2017-07-19 17:00:00 30.6 24 Sudeste 48 Sudeste 0 -- -- 39
2017-07-19 16:00:00 31.1 31 Sudeste 52 Sudeste 0 -- -- 34
2017-07-19 15:00:00 31.6 27 Sudeste 52 Sudeste 0 -- -- 38
2017-07-19 14:00:00 31.4 27 Sur 43 Sudeste 0 -- -- 42
2017-07-19 13:00:00 31.6 18 Sudeste 31 Sur 0 -- -- 37
2017-07-19 12:00:00 31.1 8 Sudeste 28 Nordeste 0 -- -- 37
2017-07-19 11:00:00 28.1 13 Este 31 Nordeste 0 -- -- 46
2017-07-19 10:00:00 24.8 21 Este 41 Nordeste 0 -- -- 63
2017-07-19 09:00:00 23.1 12 Este 35 Nordeste 0 -- -- 68
2017-07-19 08:00:00 23.8 17 Este 30 Este 0 -- -- 67
2017-07-19 07:00:00 23.2 17 Nordeste 28 Este 0 -- -- 74
2017-07-19 06:00:00 23.8 17 Sudeste 45 Sudeste 0 -- -- 71
2017-07-19 05:00:00 23.9 12 Sudeste 31 Sudeste 0 -- -- 70
2017-07-19 04:00:00 23.9 9 Sur 29 Este 0 -- -- 62
2017-07-19 03:00:00 23.6 7 Este 17 Sudeste 0 -- -- 63
2017-07-19 02:00:00 23.8 10 Sudeste 34 Sudeste 0 -- -- 69
2017-07-19 01:00:00 23.3 12 Este 40 Sur 0 -- -- 75
2017-07-19 00:00:00 24.6 10 Este 59 Sur 0 -- -- 68